Time;durP1;ratioP1;P1;durP2;ratioP2;P2;SDS_P1;SDS_P2;PMS_P1;PMS_P2;Temp;Humidity;BMP_temperature;BMP_pressure;BME280_temperature;BME280_humidity;BME280_pressure;Samples;Min_cycle;Max_cycle;Signal;HPM_P1;HPM_P2
2022/09/21 00:01:26;;;;;;;;;;;11.20;99.90;;;;;;5026225;28;20371;-72
2022/09/21 00:03:57;;;;;;;;;;;11.20;99.90;;;;;;5027657;28;19927;-73
2022/09/21 00:06:23;;;;;;;;;;;11.20;99.90;;;;;;5029570;28;20566;-74
2022/09/21 00:08:49;;;;;;;;;;;11.20;99.90;;;;;;5030257;28;19921;-74
2022/09/21 00:11:23;;;;;;;;;;;11.20;99.90;;;;;;5030788;28;19917;-74
2022/09/21 00:13:53;;;;;;;;;;;11.20;99.90;;;;;;5028224;28;20010;-73
2022/09/21 00:16:19;;;;;;;;;;;11.10;99.90;;;;;;5030287;28;19956;-74
2022/09/21 00:18:45;;;;;;;;;;;11.20;99.90;;;;;;5030208;28;20083;-74
2022/09/21 00:21:13;;;;;;;;;;;11.20;99.90;;;;;;5030870;28;19928;-73
2022/09/21 00:23:39;;;;;;;;;;;11.10;99.90;;;;;;5029251;28;19916;-73
2022/09/21 00:26:05;;;;;;;;;;;11.10;99.90;;;;;;5038735;28;19913;-74
2022/09/21 00:28:31;;;;;;;;;;;11.10;99.90;;;;;;5042356;28;20476;-73
2022/09/21 00:31:00;;;;;;;;;;;11.10;99.90;;;;;;5036938;28;19967;-73
2022/09/21 00:33:26;;;;;;;;;;;11.10;99.90;;;;;;5026302;28;19916;-72
2022/09/21 00:35:52;;;;;;;;;;;11.10;99.90;;;;;;5029600;28;19921;-73
2022/09/21 00:38:17;;;;;;;;;;;11.10;99.90;;;;;;5030678;28;20000;-74
2022/09/21 00:40:43;;;;;;;;;;;11.10;99.90;;;;;;5032404;28;19921;-74
2022/09/21 00:43:13;;;;;;;;;;;11.20;99.90;;;;;;5035002;28;19913;-74
2022/09/21 00:45:38;;;;;;;;;;;11.20;99.90;;;;;;5027539;28;19924;-74
2022/09/21 00:48:04;;;;;;;;;;;11.10;99.90;;;;;;5037219;28;19913;-73
2022/09/21 00:50:30;;;;;;;;;;;11.10;99.90;;;;;;5033614;28;19916;-73
2022/09/21 00:52:56;;;;;;;;;;;11.10;99.90;;;;;;5027860;28;19963;-73
2022/09/21 00:55:22;;;;;;;;;;;11.10;99.90;;;;;;5026302;28;19948;-73
2022/09/21 00:57:53;;;;;;;;;;;11.00;99.90;;;;;;5025102;28;19940;-72
2022/09/21 01:00:18;;;;;;;;;;;10.90;99.90;;;;;;5027597;28;19928;-72
2022/09/21 01:02:44;;;;;;;;;;;10.90;99.90;;;;;;5027062;28;20416;-73
2022/09/21 01:05:10;;;;;;;;;;;10.90;99.90;;;;;;5028670;28;19920;-74
2022/09/21 01:07:38;;;;;;;;;;;10.90;99.90;;;;;;5027454;28;20667;-72
2022/09/21 01:10:07;;;;;;;;;;;10.90;99.90;;;;;;5027904;28;20431;-74
2022/09/21 01:12:33;;;;;;;;;;;10.80;99.90;;;;;;5026648;28;19917;-73
2022/09/21 01:15:09;;;;;;;;;;;10.90;99.90;;;;;;5030722;28;19983;-74
2022/09/21 01:17:41;;;;;;;;;;;10.90;99.90;;;;;;5029588;28;19917;-73
2022/09/21 01:20:06;;;;;;;;;;;10.80;99.90;;;;;;5029555;28;19920;-74
2022/09/21 01:22:51;;;;;;;;;;;10.80;99.90;;;;;;5029475;28;19913;-74
2022/09/21 01:25:23;;;;;;;;;;;10.80;99.90;;;;;;5028596;28;19913;-74
2022/09/21 01:28:00;;;;;;;;;;;10.80;99.90;;;;;;5029078;28;19920;-73
2022/09/21 01:30:28;;;;;;;;;;;10.70;99.90;;;;;;5026438;28;20173;-73
2022/09/21 01:32:53;;;;;;;;;;;10.70;99.90;;;;;;5028437;28;19921;-74
2022/09/21 01:35:19;;;;;;;;;;;10.70;99.90;;;;;;5027300;28;19913;-73
2022/09/21 01:37:57;;;;;;;;;;;10.60;99.90;;;;;;5036021;28;19966;-74
2022/09/21 01:40:27;;;;;;;;;;;10.60;99.90;;;;;;5039835;28;19927;-73
2022/09/21 01:42:53;;;;;;;;;;;10.60;99.90;;;;;;5030543;28;19968;-74
2022/09/21 01:45:21;;;;;;;;;;;10.50;99.90;;;;;;5025936;28;19913;-73
2022/09/21 01:47:48;;;;;;;;;;;10.50;99.90;;;;;;5037343;28;19917;-74
2022/09/21 01:50:15;;;;;;;;;;;10.50;99.90;;;;;;5036080;28;19956;-73
2022/09/21 01:52:41;;;;;;;;;;;10.40;99.90;;;;;;5034450;28;19959;-73
2022/09/21 01:55:09;;;;;;;;;;;10.40;99.90;;;;;;5031593;28;20362;-73
2022/09/21 01:57:53;;;;;;;;;;;10.40;99.90;;;;;;5030959;28;19917;-73
2022/09/21 02:00:19;;;;;;;;;;;10.40;99.90;;;;;;5025987;28;19917;-74
2022/09/21 02:02:45;;;;;;;;;;;10.30;99.90;;;;;;5035161;28;19939;-74
2022/09/21 02:05:11;;;;;;;;;;;10.30;99.90;;;;;;5038208;28;19943;-74
2022/09/21 02:07:38;;;;;;;;;;;10.30;99.90;;;;;;5047667;28;19921;-74
2022/09/21 02:10:06;;;;;;;;;;;10.30;99.90;;;;;;5051436;28;19909;-74
2022/09/21 02:12:31;;;;;;;;;;;10.20;99.90;;;;;;5051804;28;19917;-74
2022/09/21 02:14:57;;;;;;;;;;;10.20;99.90;;;;;;5051915;28;19920;-74
2022/09/21 02:17:26;;;;;;;;;;;10.10;99.90;;;;;;5039861;28;19913;-74
2022/09/21 02:20:01;;;;;;;;;;;10.10;99.90;;;;;;5029135;28;20020;-73
2022/09/21 02:22:28;;;;;;;;;;;10.10;99.90;;;;;;5028914;28;20312;-73
2022/09/21 02:24:56;;;;;;;;;;;10.00;99.90;;;;;;5028117;28;19913;-74
2022/09/21 02:27:35;;;;;;;;;;;10.00;99.90;;;;;;5036811;28;19966;-74
2022/09/21 02:30:07;;;;;;;;;;;10.00;99.90;;;;;;5053274;28;19921;-74
2022/09/21 02:32:42;;;;;;;;;;;10.00;99.90;;;;;;5052408;28;19897;-74
2022/09/21 02:35:16;;;;;;;;;;;10.00;99.90;;;;;;5040530;28;20007;-73
2022/09/21 02:37:46;;;;;;;;;;;10.00;99.90;;;;;;5033733;28;20377;-74
2022/09/21 02:40:30;;;;;;;;;;;9.90;99.90;;;;;;5031349;28;19928;-74
2022/09/21 02:42:59;;;;;;;;;;;9.90;99.90;;;;;;5028085;28;19931;-74
2022/09/21 02:45:27;;;;;;;;;;;9.90;99.90;;;;;;5040071;28;19917;-74
2022/09/21 02:47:57;;;;;;;;;;;9.80;99.90;;;;;;5040157;28;19917;-73
2022/09/21 02:50:26;;;;;;;;;;;9.80;99.90;;;;;;5039325;28;19984;-74
2022/09/21 02:52:53;;;;;;;;;;;9.80;99.90;;;;;;5038056;28;19939;-73
2022/09/21 02:55:18;;;;;;;;;;;9.80;99.90;;;;;;5032072;28;19917;-74
2022/09/21 02:57:46;;;;;;;;;;;9.70;99.90;;;;;;5025256;28;19917;-74
2022/09/21 03:00:12;;;;;;;;;;;9.70;99.90;;;;;;5031689;28;20391;-73
2022/09/21 03:02:39;;;;;;;;;;;9.70;99.90;;;;;;5027275;28;19917;-74
2022/09/21 03:05:05;;;;;;;;;;;9.70;99.90;;;;;;5028176;28;19917;-74
2022/09/21 03:07:31;;;;;;;;;;;9.70;99.90;;;;;;5028430;28;19995;-73
2022/09/21 03:09:57;;;;;;;;;;;9.70;99.90;;;;;;5026019;28;19945;-74
2022/09/21 03:12:22;;;;;;;;;;;9.60;99.90;;;;;;5027585;28;20002;-73
2022/09/21 03:14:50;;;;;;;;;;;9.60;99.90;;;;;;5024673;28;19913;-73
2022/09/21 03:17:15;;;;;;;;;;;9.60;99.90;;;;;;5021445;28;20030;-73
2022/09/21 03:19:41;;;;;;;;;;;9.60;99.90;;;;;;5021870;28;20046;-74
2022/09/21 03:22:06;;;;;;;;;;;9.60;99.90;;;;;;5027070;28;19978;-74
2022/09/21 03:24:44;;;;;;;;;;;9.50;99.90;;;;;;5020364;28;19924;-73
2022/09/21 03:27:10;;;;;;;;;;;9.50;99.90;;;;;;5020562;28;20369;-74
2022/09/21 03:29:35;;;;;;;;;;;9.50;99.90;;;;;;5024813;28;19913;-73
2022/09/21 03:32:01;;;;;;;;;;;9.50;99.90;;;;;;5026070;28;20384;-74
2022/09/21 03:34:26;;;;;;;;;;;9.50;99.90;;;;;;5025768;28;19967;-74
2022/09/21 03:36:52;;;;;;;;;;;9.50;99.90;;;;;;5026004;28;20471;-74
2022/09/21 03:39:17;;;;;;;;;;;9.50;99.90;;;;;;5026345;28;19956;-74
2022/09/21 03:41:43;;;;;;;;;;;9.40;99.90;;;;;;4989169;28;1089460;-74
2022/09/21 03:44:09;;;;;;;;;;;9.50;99.90;;;;;;5036539;28;20500;-73
2022/09/21 03:46:34;;;;;;;;;;;9.50;99.90;;;;;;5035925;28;20301;-73
2022/09/21 03:49:01;;;;;;;;;;;9.40;99.90;;;;;;5027386;28;19921;-74
2022/09/21 03:51:28;;;;;;;;;;;9.50;99.90;;;;;;5026853;28;20321;-74
2022/09/21 03:53:54;;;;;;;;;;;9.40;99.90;;;;;;5026799;28;19917;-74
2022/09/21 03:56:20;;;;;;;;;;;9.50;99.90;;;;;;5028561;28;19913;-74
2022/09/21 03:58:45;;;;;;;;;;;9.50;99.90;;;;;;5031579;28;19917;-74
2022/09/21 04:01:11;;;;;;;;;;;9.40;99.90;;;;;;5040101;28;19925;-74
2022/09/21 04:03:37;;;;;;;;;;;9.40;99.90;;;;;;5037391;28;19968;-73
2022/09/21 04:06:12;;;;;;;;;;;9.40;99.90;;;;;;5034552;28;19967;-74
2022/09/21 04:08:38;;;;;;;;;;;9.40;99.90;;;;;;5034781;28;19913;-74
2022/09/21 04:11:11;;;;;;;;;;;9.50;99.90;;;;;;5027220;28;19968;-74
2022/09/21 04:13:37;;;;;;;;;;;9.40;99.90;;;;;;5026595;28;19948;-73
2022/09/21 04:16:03;;;;;;;;;;;9.40;99.90;;;;;;5026834;28;19986;-74
2022/09/21 04:18:28;;;;;;;;;;;9.40;99.90;;;;;;5024838;28;19913;-74
2022/09/21 04:20:54;;;;;;;;;;;9.40;99.90;;;;;;5027041;28;20035;-73
2022/09/21 04:23:20;;;;;;;;;;;9.30;99.90;;;;;;5025875;28;19971;-73
2022/09/21 04:25:47;;;;;;;;;;;9.30;99.90;;;;;;5025826;28;20405;-74
2022/09/21 04:28:13;;;;;;;;;;;9.30;99.90;;;;;;5026406;28;19967;-74
2022/09/21 04:30:39;;;;;;;;;;;9.30;99.90;;;;;;5022680;28;19917;-73
2022/09/21 04:33:04;;;;;;;;;;;9.30;99.90;;;;;;5025223;28;19955;-74
2022/09/21 04:35:30;;;;;;;;;;;9.20;99.90;;;;;;5025890;28;19917;-74
2022/09/21 04:37:55;;;;;;;;;;;9.20;99.90;;;;;;5025562;28;19913;-73
2022/09/21 04:40:22;;;;;;;;;;;9.20;99.90;;;;;;5026744;28;19932;-74
2022/09/21 04:42:51;;;;;;;;;;;9.20;99.90;;;;;;5033386;28;19984;-74
2022/09/21 04:45:17;;;;;;;;;;;9.10;99.90;;;;;;5038588;28;19913;-74
2022/09/21 04:47:42;;;;;;;;;;;9.10;99.90;;;;;;5017286;28;19929;-74
2022/09/21 04:50:08;;;;;;;;;;;9.10;99.90;;;;;;5026901;28;20413;-73
2022/09/21 04:52:34;;;;;;;;;;;9.10;99.90;;;;;;5028679;28;19936;-74
2022/09/21 04:54:59;;;;;;;;;;;9.10;99.90;;;;;;5029663;28;19952;-74
2022/09/21 04:57:25;;;;;;;;;;;9.00;99.90;;;;;;5030364;28;19968;-74
2022/09/21 04:59:50;;;;;;;;;;;9.10;99.90;;;;;;5029473;28;20109;-75
2022/09/21 05:02:16;;;;;;;;;;;9.10;99.90;;;;;;5028647;28;19923;-73
2022/09/21 05:04:41;;;;;;;;;;;9.10;99.90;;;;;;5029782;28;19928;-73
2022/09/21 05:07:07;;;;;;;;;;;9.10;99.90;;;;;;5034642;28;19971;-75
2022/09/21 05:12:17;;;;;;;;;;;9.10;99.90;;;;;;5037255;28;20003;-74
2022/09/21 05:14:43;;;;;;;;;;;9.10;99.90;;;;;;5038510;28;19945;-74
2022/09/21 05:17:09;;;;;;;;;;;9.10;99.90;;;;;;5035316;28;19924;-74
2022/09/21 05:19:35;;;;;;;;;;;9.10;99.90;;;;;;5030891;28;19920;-74
2022/09/21 05:22:01;;;;;;;;;;;9.10;99.90;;;;;;5029685;28;20832;-74
2022/09/21 05:24:26;;;;;;;;;;;9.10;99.90;;;;;;5028984;28;19921;-73
2022/09/21 05:26:51;;;;;;;;;;;9.10;99.90;;;;;;5030416;28;19917;-74
2022/09/21 05:29:17;;;;;;;;;;;9.10;99.90;;;;;;5029165;28;20019;-74
2022/09/21 05:31:43;;;;;;;;;;;9.10;99.90;;;;;;5029608;28;19920;-74
2022/09/21 05:34:38;;;;;;;;;;;9.10;99.90;;;;;;5029332;28;20406;-73
2022/09/21 05:37:19;;;;;;;;;;;9.10;99.90;;;;;;5023060;28;19940;-74
2022/09/21 05:39:45;;;;;;;;;;;9.10;99.90;;;;;;5035044;28;19917;-74
2022/09/21 05:42:11;;;;;;;;;;;9.10;99.90;;;;;;5038934;28;19921;-74
2022/09/21 05:44:36;;;;;;;;;;;9.10;99.90;;;;;;5035277;28;19921;-74
2022/09/21 05:47:20;;;;;;;;;;;9.00;99.90;;;;;;5036990;28;19913;-74
2022/09/21 05:50:09;;;;;;;;;;;9.10;99.90;;;;;;5030360;28;19917;-73
2022/09/21 05:52:41;;;;;;;;;;;9.00;99.90;;;;;;5026019;28;19928;-74
2022/09/21 05:55:27;;;;;;;;;;;9.00;99.90;;;;;;5027143;28;19916;-72
2022/09/21 05:57:58;;;;;;;;;;;9.00;99.90;;;;;;5011914;28;19917;-74
2022/09/21 06:00:24;;;;;;;;;;;9.00;99.90;;;;;;5033466;28;19987;-74
2022/09/21 06:02:53;;;;;;;;;;;9.00;99.90;;;;;;5033260;28;20332;-74
2022/09/21 06:05:18;;;;;;;;;;;9.00;99.90;;;;;;5034053;28;20108;-75
2022/09/21 06:07:44;;;;;;;;;;;9.00;99.90;;;;;;5034589;28;20441;-75
2022/09/21 06:10:11;;;;;;;;;;;9.00;99.90;;;;;;5029960;28;20369;-73
2022/09/21 06:12:36;;;;;;;;;;;9.10;99.90;;;;;;5033970;28;19992;-75
2022/09/21 06:15:02;;;;;;;;;;;9.00;99.90;;;;;;5031755;28;19913;-74
2022/09/21 06:17:28;;;;;;;;;;;9.10;99.90;;;;;;5035338;28;19921;-74
2022/09/21 06:19:53;;;;;;;;;;;9.20;99.90;;;;;;5038520;28;19923;-74
2022/09/21 06:22:19;;;;;;;;;;;9.20;99.90;;;;;;5043057;28;19917;-73
2022/09/21 06:24:44;;;;;;;;;;;9.30;99.90;;;;;;5039764;28;19924;-74
2022/09/21 06:27:10;;;;;;;;;;;9.30;99.90;;;;;;5035075;28;19942;-74
2022/09/21 06:29:35;;;;;;;;;;;9.50;99.90;;;;;;5034693;28;19921;-75
2022/09/21 06:32:01;;;;;;;;;;;9.60;99.90;;;;;;5034928;28;19921;-75
2022/09/21 06:34:27;;;;;;;;;;;9.80;99.90;;;;;;5032476;28;19921;-74
2022/09/21 06:36:52;;;;;;;;;;;10.00;99.90;;;;;;5033969;28;19971;-74
2022/09/21 06:39:18;;;;;;;;;;;10.20;99.90;;;;;;5040064;28;19966;-77
2022/09/21 06:41:43;;;;;;;;;;;10.40;99.90;;;;;;5040067;28;19925;-74
2022/09/21 06:44:09;;;;;;;;;;;10.50;99.90;;;;;;5041597;28;19920;-75
2022/09/21 06:46:34;;;;;;;;;;;10.70;99.90;;;;;;5045443;28;19917;-74
2022/09/21 06:49:00;;;;;;;;;;;10.80;99.90;;;;;;5031432;28;20412;-75
2022/09/21 06:51:25;;;;;;;;;;;10.90;99.90;;;;;;5036811;28;19921;-74
2022/09/21 06:53:55;;;;;;;;;;;11.00;99.90;;;;;;5038963;28;20283;-75
2022/09/21 06:56:21;;;;;;;;;;;11.10;99.90;;;;;;5043384;28;19913;-75
2022/09/21 06:58:47;;;;;;;;;;;11.20;99.90;;;;;;5037836;28;19917;-74
2022/09/21 07:01:13;;;;;;;;;;;11.30;99.90;;;;;;5035762;28;19923;-74
2022/09/21 07:03:39;;;;;;;;;;;11.30;99.90;;;;;;5037756;28;19909;-74
2022/09/21 07:06:05;;;;;;;;;;;11.40;99.90;;;;;;5033746;28;19925;-75
2022/09/21 07:08:31;;;;;;;;;;;11.40;99.90;;;;;;5029592;28;19917;-73
2022/09/21 07:10:58;;;;;;;;;;;11.60;99.90;;;;;;5035932;28;19981;-75
2022/09/21 07:13:24;;;;;;;;;;;11.70;99.90;;;;;;5040166;28;19913;-75
2022/09/21 07:15:49;;;;;;;;;;;11.80;99.90;;;;;;5039277;28;19913;-73
2022/09/21 07:18:15;;;;;;;;;;;11.90;99.90;;;;;;5041703;28;20012;-75
2022/09/21 07:20:40;;;;;;;;;;;12.00;99.90;;;;;;5031100;28;20766;-74
2022/09/21 07:23:15;;;;;;;;;;;12.10;99.90;;;;;;5028654;28;19924;-75
2022/09/21 07:25:41;;;;;;;;;;;12.10;99.90;;;;;;5028022;28;20383;-74
2022/09/21 07:28:07;;;;;;;;;;;12.20;99.90;;;;;;5041654;28;20003;-74
2022/09/21 07:30:33;;;;;;;;;;;12.20;99.90;;;;;;5033541;28;20600;-75
2022/09/21 07:32:58;;;;;;;;;;;12.30;99.90;;;;;;5036644;28;20448;-75
2022/09/21 07:35:24;;;;;;;;;;;12.40;99.90;;;;;;5037741;28;19997;-75
2022/09/21 07:37:49;;;;;;;;;;;12.60;99.90;;;;;;5029147;28;19920;-75
2022/09/21 07:40:15;;;;;;;;;;;12.70;99.90;;;;;;5028662;28;19917;-74
2022/09/21 07:42:40;;;;;;;;;;;12.80;99.90;;;;;;5037037;28;19966;-76
2022/09/21 07:45:06;;;;;;;;;;;12.90;99.90;;;;;;5038369;28;19921;-75
2022/09/21 07:47:32;;;;;;;;;;;12.90;99.90;;;;;;5037113;28;19917;-75
2022/09/21 07:49:57;;;;;;;;;;;13.00;99.90;;;;;;5040037;28;19948;-75
2022/09/21 07:52:23;;;;;;;;;;;13.10;99.90;;;;;;5040490;28;19919;-75
2022/09/21 07:54:48;;;;;;;;;;;13.20;99.90;;;;;;5040407;28;19960;-74
2022/09/21 07:59:58;;;;;;;;;;;13.30;99.90;;;;;;5040424;28;19928;-75
2022/09/21 08:02:23;;;;;;;;;;;13.40;99.90;;;;;;5041279;28;19917;-75
2022/09/21 08:04:49;;;;;;;;;;;13.40;99.90;;;;;;5036571;28;20080;-73
2022/09/21 08:07:14;;;;;;;;;;;13.50;99.90;;;;;;5038928;28;19913;-75
2022/09/21 08:09:40;;;;;;;;;;;13.60;99.90;;;;;;5040870;28;19955;-75
2022/09/21 08:12:07;;;;;;;;;;;13.70;99.90;;;;;;5049152;28;20321;-75
2022/09/21 08:14:34;;;;;;;;;;;13.70;99.90;;;;;;5032387;28;19917;-74
2022/09/21 08:17:00;;;;;;;;;;;13.90;99.90;;;;;;5036076;28;19913;-74
2022/09/21 08:19:26;;;;;;;;;;;14.00;99.90;;;;;;5036987;28;19999;-75
2022/09/21 08:21:52;;;;;;;;;;;14.00;99.90;;;;;;5040630;28;19963;-75
2022/09/21 08:24:18;;;;;;;;;;;14.10;99.90;;;;;;5036063;28;19913;-74
2022/09/21 08:26:44;;;;;;;;;;;14.10;99.90;;;;;;5031473;28;19912;-74
2022/09/21 08:29:13;;;;;;;;;;;14.20;99.90;;;;;;5034393;28;20365;-75
2022/09/21 08:31:38;;;;;;;;;;;14.30;99.90;;;;;;5034932;28;19916;-74
2022/09/21 08:34:04;;;;;;;;;;;14.40;99.90;;;;;;5036241;28;19909;-76
2022/09/21 08:36:30;;;;;;;;;;;14.40;99.90;;;;;;5035153;28;19992;-75
2022/09/21 08:38:55;;;;;;;;;;;14.50;99.90;;;;;;5035163;28;19948;-75
2022/09/21 08:41:22;;;;;;;;;;;14.60;99.90;;;;;;5037937;28;19952;-74
2022/09/21 08:43:51;;;;;;;;;;;14.70;99.90;;;;;;5047709;28;19920;-75
2022/09/21 08:46:18;;;;;;;;;;;14.70;99.90;;;;;;5038060;28;19913;-75
2022/09/21 08:48:49;;;;;;;;;;;14.80;99.90;;;;;;5034920;28;19913;-72
2022/09/21 08:51:16;;;;;;;;;;;14.80;99.90;;;;;;5034577;28;20350;-74
2022/09/21 08:53:44;;;;;;;;;;;15.00;99.90;;;;;;5033454;28;19981;-74
2022/09/21 08:56:10;;;;;;;;;;;15.00;99.90;;;;;;5037618;28;19924;-74
2022/09/21 08:58:37;;;;;;;;;;;15.00;99.90;;;;;;5039473;28;19921;-74
2022/09/21 09:01:06;;;;;;;;;;;15.00;99.90;;;;;;5036480;28;19943;-75
2022/09/21 09:03:42;;;;;;;;;;;15.00;99.90;;;;;;5032613;28;20011;-76
2022/09/21 09:06:28;;;;;;;;;;;14.90;99.90;;;;;;5032187;28;19920;-75
2022/09/21 09:09:12;;;;;;;;;;;15.00;99.90;;;;;;5025130;28;19913;-76
2022/09/21 09:11:41;;;;;;;;;;;15.00;99.90;;;;;;5028742;28;19920;-75
2022/09/21 09:14:06;;;;;;;;;;;15.10;99.90;;;;;;5029181;28;20443;-74
2022/09/21 09:16:32;;;;;;;;;;;15.20;99.90;;;;;;5021355;28;19921;-75
2022/09/21 09:19:02;;;;;;;;;;;15.30;99.90;;;;;;5028916;28;19920;-75
2022/09/21 09:21:30;;;;;;;;;;;15.30;99.90;;;;;;5028459;28;19925;-76
2022/09/21 09:24:02;;;;;;;;;;;15.30;99.90;;;;;;5027266;28;19916;-75
2022/09/21 09:26:27;;;;;;;;;;;15.40;99.90;;;;;;5025655;28;19913;-75
2022/09/21 09:28:59;;;;;;;;;;;15.60;99.90;;;;;;5027482;28;20550;-75
2022/09/21 09:31:27;;;;;;;;;;;15.60;99.90;;;;;;5024443;28;19925;-76
2022/09/21 09:34:11;;;;;;;;;;;15.60;99.90;;;;;;5020480;28;20336;-76
2022/09/21 09:36:38;;;;;;;;;;;15.60;99.90;;;;;;5026482;28;19936;-75
2022/09/21 09:39:08;;;;;;;;;;;15.70;99.90;;;;;;5027427;28;19917;-75
2022/09/21 09:41:53;;;;;;;;;;;15.70;99.90;;;;;;5027401;28;20363;-75
2022/09/21 09:44:37;;;;;;;;;;;15.80;99.90;;;;;;5034453;28;19923;-74
2022/09/21 09:47:22;;;;;;;;;;;15.80;99.90;;;;;;5023480;28;19921;-74
2022/09/21 09:50:02;;;;;;;;;;;15.90;99.90;;;;;;5026229;28;19968;-75
2022/09/21 09:52:28;;;;;;;;;;;16.00;99.90;;;;;;5029767;28;19921;-75
2022/09/21 09:54:54;;;;;;;;;;;16.10;99.90;;;;;;5020659;28;19928;-77
2022/09/21 09:57:26;;;;;;;;;;;16.10;99.90;;;;;;5027279;28;19917;-76
2022/09/21 09:59:54;;;;;;;;;;;16.00;99.90;;;;;;5027729;28;19928;-76
2022/09/21 10:02:21;;;;;;;;;;;16.00;99.90;;;;;;5027145;28;19921;-75
2022/09/21 10:05:14;;;;;;;;;;;16.10;99.90;;;;;;5027012;28;20297;-76
2022/09/21 10:07:41;;;;;;;;;;;16.10;99.90;;;;;;5023482;28;19978;-74
2022/09/21 10:10:25;;;;;;;;;;;16.10;99.90;;;;;;5028924;28;19986;-74
2022/09/21 10:12:51;;;;;;;;;;;16.20;99.90;;;;;;5023204;28;19913;-74
2022/09/21 10:15:17;;;;;;;;;;;16.10;99.90;;;;;;5022785;28;19967;-76
2022/09/21 10:17:46;;;;;;;;;;;15.90;99.90;;;;;;5027889;28;19975;-74
2022/09/21 10:20:16;;;;;;;;;;;15.90;99.90;;;;;;5024246;28;19921;-75
2022/09/21 10:22:46;;;;;;;;;;;16.00;99.90;;;;;;5032284;28;19925;-75
2022/09/21 10:25:15;;;;;;;;;;;16.00;99.90;;;;;;5036911;28;19931;-75
2022/09/21 10:27:42;;;;;;;;;;;15.80;99.90;;;;;;5030694;28;19957;-75
2022/09/21 10:30:28;;;;;;;;;;;15.70;99.90;;;;;;5029847;28;19924;-76
2022/09/21 10:32:57;;;;;;;;;;;15.50;99.90;;;;;;5025953;28;19980;-76
2022/09/21 10:35:23;;;;;;;;;;;15.50;99.90;;;;;;5023239;28;19995;-76
2022/09/21 10:38:07;;;;;;;;;;;15.50;99.90;;;;;;5030262;28;19986;-76
2022/09/21 10:40:35;;;;;;;;;;;15.70;99.90;;;;;;5029024;28;19975;-75
2022/09/21 10:43:00;;;;;;;;;;;15.90;99.90;;;;;;5024545;28;19924;-77
2022/09/21 10:45:26;;;;;;;;;;;16.00;99.90;;;;;;5032440;28;20292;-76
2022/09/21 10:47:54;;;;;;;;;;;16.10;99.90;;;;;;5032855;28;19917;-76
2022/09/21 10:50:25;;;;;;;;;;;16.10;99.90;;;;;;5030387;28;19913;-75
2022/09/21 10:52:55;;;;;;;;;;;16.30;99.90;;;;;;5022299;28;19928;-76
2022/09/21 10:55:21;;;;;;;;;;;16.40;99.90;;;;;;5021037;28;19920;-75
2022/09/21 10:57:48;;;;;;;;;;;16.50;99.90;;;;;;5022236;28;19909;-75
2022/09/21 11:00:22;;;;;;;;;;;16.70;99.90;;;;;;5025236;28;19913;-76
2022/09/21 11:02:49;;;;;;;;;;;16.80;99.90;;;;;;5017848;28;19912;-75
2022/09/21 11:05:18;;;;;;;;;;;16.90;99.90;;;;;;5023240;28;19912;-76
2022/09/21 11:07:56;;;;;;;;;;;17.10;99.90;;;;;;5026320;28;19917;-74
2022/09/21 11:10:25;;;;;;;;;;;17.20;99.90;;;;;;5023834;28;19947;-73
2022/09/21 11:13:03;;;;;;;;;;;17.30;99.80;;;;;;5025976;28;20331;-78
2022/09/21 11:15:49;;;;;;;;;;;17.40;98.70;;;;;;5047087;28;20488;-76
2022/09/21 11:18:20;;;;;;;;;;;17.30;99.50;;;;;;5047710;28;19984;-76
2022/09/21 11:21:02;;;;;;;;;;;17.20;99.90;;;;;;5045487;28;19970;-77
2022/09/21 11:23:57;;;;;;;;;;;17.20;99.90;;;;;;5043866;28;19943;-74
2022/09/21 11:26:43;;;;;;;;;;;17.10;99.90;;;;;;5017315;28;20060;-76
2022/09/21 11:29:14;;;;;;;;;;;16.90;99.90;;;;;;5039242;28;19959;-75
2022/09/21 11:31:39;;;;;;;;;;;16.80;99.90;;;;;;5037739;28;19987;-74
2022/09/21 11:34:05;;;;;;;;;;;16.70;99.90;;;;;;5027497;28;19917;-78
2022/09/21 11:36:40;;;;;;;;;;;16.60;99.90;;;;;;5037469;28;19919;-76
2022/09/21 11:39:25;;;;;;;;;;;16.50;99.90;;;;;;5027722;28;19938;-75
2022/09/21 11:42:05;;;;;;;;;;;16.30;99.90;;;;;;5035431;28;19947;-77
2022/09/21 11:44:49;;;;;;;;;;;16.20;99.90;;;;;;5034772;28;19913;-76
2022/09/21 11:47:22;;;;;;;;;;;16.10;99.90;;;;;;5041565;28;19917;-75
2022/09/21 11:49:50;;;;;;;;;;;15.90;99.90;;;;;;5029294;28;19913;-74
2022/09/21 11:52:20;;;;;;;;;;;15.80;99.90;;;;;;5034103;28;19927;-74
2022/09/21 11:54:49;;;;;;;;;;;15.70;99.90;;;;;;5030718;28;19917;-74
2022/09/21 11:57:35;;;;;;;;;;;15.70;99.90;;;;;;5024391;28;19920;-75
2022/09/21 12:00:30;;;;;;;;;;;15.60;99.90;;;;;;5027006;28;19920;-75
2022/09/21 12:03:15;;;;;;;;;;;15.60;99.90;;;;;;5026676;28;19920;-75
2022/09/21 12:05:41;;;;;;;;;;;15.70;99.90;;;;;;5029115;28;19921;-75
2022/09/21 12:08:06;;;;;;;;;;;15.80;99.90;;;;;;5028953;28;21340;-74
2022/09/21 12:10:43;;;;;;;;;;;15.90;99.90;;;;;;5025638;28;19921;-75
2022/09/21 12:13:11;;;;;;;;;;;16.00;99.90;;;;;;5025715;28;20433;-75
2022/09/21 12:15:48;;;;;;;;;;;16.10;99.90;;;;;;5025727;28;19927;-75
2022/09/21 12:18:46;;;;;;;;;;;16.20;99.90;;;;;;5026123;28;19921;-76
2022/09/21 12:21:16;;;;;;;;;;;16.30;99.90;;;;;;5009824;28;20368;-76
2022/09/21 12:23:48;;;;;;;;;;;16.30;99.90;;;;;;5029246;28;20363;-75
2022/09/21 12:26:17;;;;;;;;;;;16.30;99.90;;;;;;5025324;28;19960;-75
2022/09/21 12:28:48;;;;;;;;;;;16.30;99.90;;;;;;5025096;28;19921;-75
2022/09/21 12:31:34;;;;;;;;;;;16.20;99.90;;;;;;5024726;28;19956;-75
2022/09/21 12:34:02;;;;;;;;;;;16.20;99.90;;;;;;5028058;28;19960;-75
2022/09/21 12:36:31;;;;;;;;;;;16.20;99.90;;;;;;5030252;28;19917;-75
2022/09/21 12:39:00;;;;;;;;;;;16.20;99.90;;;;;;5029614;28;19913;-75
2022/09/21 12:41:44;;;;;;;;;;;16.10;99.90;;;;;;5029393;28;19936;-76
2022/09/21 12:44:25;;;;;;;;;;;16.10;99.90;;;;;;5028124;28;19917;-75
2022/09/21 12:47:08;;;;;;;;;;;16.10;99.90;;;;;;5027463;28;19955;-75
2022/09/21 12:49:38;;;;;;;;;;;16.00;99.90;;;;;;5030433;28;19909;-75
2022/09/21 12:52:05;;;;;;;;;;;16.00;99.90;;;;;;5021909;28;19960;-76
2022/09/21 12:54:37;;;;;;;;;;;16.00;99.90;;;;;;5028020;28;19963;-73
2022/09/21 12:57:16;;;;;;;;;;;16.10;99.90;;;;;;5037714;28;19960;-74
2022/09/21 12:59:52;;;;;;;;;;;16.10;99.90;;;;;;5030285;28;19944;-75
2022/09/21 13:02:36;;;;;;;;;;;16.10;99.90;;;;;;5027688;28;20366;-76
2022/09/21 13:05:13;;;;;;;;;;;16.10;99.90;;;;;;5030203;28;19960;-75
2022/09/21 13:07:58;;;;;;;;;;;16.10;99.90;;;;;;5041308;28;19909;-74
2022/09/21 13:10:26;;;;;;;;;;;16.10;99.90;;;;;;5040265;28;19916;-74
2022/09/21 13:12:55;;;;;;;;;;;16.10;99.90;;;;;;5030937;28;19913;-74
2022/09/21 13:15:29;;;;;;;;;;;16.10;99.90;;;;;;5029060;28;19913;-75
2022/09/21 13:17:59;;;;;;;;;;;16.20;99.90;;;;;;5029867;28;19996;-75
2022/09/21 13:20:25;;;;;;;;;;;16.20;99.90;;;;;;5030329;28;19912;-75
2022/09/21 13:22:57;;;;;;;;;;;16.30;99.90;;;;;;5029280;28;19913;-75
2022/09/21 13:25:25;;;;;;;;;;;16.40;99.90;;;;;;5029459;28;19923;-75
2022/09/21 13:28:18;;;;;;;;;;;16.50;99.90;;;;;;5029293;28;20373;-74
2022/09/21 13:30:47;;;;;;;;;;;16.50;99.90;;;;;;5025663;28;19963;-74
2022/09/21 13:33:15;;;;;;;;;;;16.60;99.90;;;;;;5029180;28;19921;-75
2022/09/21 13:35:50;;;;;;;;;;;16.70;99.90;;;;;;5028600;28;19920;-74
2022/09/21 13:38:23;;;;;;;;;;;16.70;99.90;;;;;;5026591;28;20287;-75
2022/09/21 13:40:54;;;;;;;;;;;16.80;99.90;;;;;;5028912;28;19928;-74
2022/09/21 13:43:21;;;;;;;;;;;16.70;99.90;;;;;;5025981;28;19939;-75
2022/09/21 13:45:52;;;;;;;;;;;16.70;99.90;;;;;;5028255;28;19925;-74
2022/09/21 13:48:26;;;;;;;;;;;16.70;99.90;;;;;;5029188;28;19998;-75
2022/09/21 13:50:54;;;;;;;;;;;16.60;99.90;;;;;;5028539;28;19923;-74
2022/09/21 13:53:22;;;;;;;;;;;16.60;99.90;;;;;;5028697;28;20320;-74
2022/09/21 13:55:54;;;;;;;;;;;16.60;99.90;;;;;;5028268;28;20389;-75
2022/09/21 13:58:25;;;;;;;;;;;16.60;99.90;;;;;;5032594;28;19917;-74
2022/09/21 14:01:09;;;;;;;;;;;16.50;99.90;;;;;;5036334;28;19917;-73
2022/09/21 14:03:36;;;;;;;;;;;16.50;99.90;;;;;;5035917;28;19920;-75
2022/09/21 14:06:12;;;;;;;;;;;16.50;99.90;;;;;;5034250;28;19921;-75
2022/09/21 14:08:40;;;;;;;;;;;16.50;99.90;;;;;;5031763;28;20443;-75
2022/09/21 14:11:20;;;;;;;;;;;16.50;99.90;;;;;;5025611;28;19917;-73
2022/09/21 14:13:58;;;;;;;;;;;16.50;99.90;;;;;;5024842;28;19917;-75
2022/09/21 14:16:24;;;;;;;;;;;16.50;99.90;;;;;;5029294;28;19996;-76
2022/09/21 14:18:50;;;;;;;;;;;16.50;99.90;;;;;;5027978;28;19917;-75
2022/09/21 14:21:16;;;;;;;;;;;16.50;99.90;;;;;;5028869;28;19928;-75
2022/09/21 14:24:00;;;;;;;;;;;16.40;99.90;;;;;;5028247;28;19963;-76
2022/09/21 14:26:35;;;;;;;;;;;16.30;99.90;;;;;;5036243;28;19920;-75
2022/09/21 14:29:14;;;;;;;;;;;16.20;99.90;;;;;;5038374;28;20000;-75
2022/09/21 14:31:40;;;;;;;;;;;16.10;99.90;;;;;;5024214;28;19917;-75
2022/09/21 14:34:11;;;;;;;;;;;16.00;99.90;;;;;;5026778;28;19913;-75
2022/09/21 14:36:40;;;;;;;;;;;15.80;99.90;;;;;;5024701;28;20392;-74
2022/09/21 14:39:14;;;;;;;;;;;15.80;99.90;;;;;;5024340;28;19919;-74
2022/09/21 14:41:41;;;;;;;;;;;15.70;99.90;;;;;;5024498;28;19983;-75